sensor_id;sensor_type;location;lat;lon;timestamp;pressure;altitude;pressure_sealevel;temperature;humidity
31092;BME280;67728;53.122;12.776;2023-05-19T00:00:16;101975.34;;;6.49;79.81
31092;BME280;67728;53.122;12.776;2023-05-19T00:01:49;101979.00;;;6.60;79.46
31092;BME280;67728;53.122;12.776;2023-05-19T00:03:22;101978.47;;;6.35;79.26
31092;BME280;67728;53.122;12.776;2023-05-19T00:04:54;101981.50;;;6.56;79.45
31092;BME280;67728;53.122;12.776;2023-05-19T00:06:29;101977.28;;;6.59;79.19
31092;BME280;67728;53.122;12.776;2023-05-19T00:08:01;101982.81;;;6.37;79.24
31092;BME280;67728;53.122;12.776;2023-05-19T00:09:35;101971.00;;;6.47;79.12
31092;BME280;67728;53.122;12.776;2023-05-19T00:11:07;101973.41;;;6.39;78.60
31092;BME280;67728;53.122;12.776;2023-05-19T00:12:39;101972.38;;;6.31;79.20
31092;BME280;67728;53.122;12.776;2023-05-19T00:14:11;101973.41;;;6.39;79.40
31092;BME280;67728;53.122;12.776;2023-05-19T00:15:43;101967.19;;;6.30;79.77
31092;BME280;67728;53.122;12.776;2023-05-19T00:17:14;101972.59;;;6.40;79.84
31092;BME280;67728;53.122;12.776;2023-05-19T00:18:47;101973.09;;;6.24;80.27
31092;BME280;67728;53.122;12.776;2023-05-19T00:20:19;101974.66;;;6.18;81.57
31092;BME280;67728;53.122;12.776;2023-05-19T00:21:50;101973.91;;;6.22;81.64
31092;BME280;67728;53.122;12.776;2023-05-19T00:23:22;101973.97;;;6.26;80.27
31092;BME280;67728;53.122;12.776;2023-05-19T00:24:53;101975.75;;;6.29;80.80
31092;BME280;67728;53.122;12.776;2023-05-19T00:26:26;101973.75;;;6.16;80.36
31092;BME280;67728;53.122;12.776;2023-05-19T00:27:57;101961.84;;;6.22;80.56
31092;BME280;67728;53.122;12.776;2023-05-19T00:29:29;101971.00;;;6.08;80.39
31092;BME280;67728;53.122;12.776;2023-05-19T00:31:01;101971.91;;;6.12;80.34
31092;BME280;67728;53.122;12.776;2023-05-19T00:32:33;101964.03;;;6.04;81.09
31092;BME280;67728;53.122;12.776;2023-05-19T00:34:05;101972.66;;;5.72;82.32
31092;BME280;67728;53.122;12.776;2023-05-19T00:35:38;101966.25;;;5.89;82.48
31092;BME280;67728;53.122;12.776;2023-05-19T00:37:09;101958.56;;;5.90;82.20
31092;BME280;67728;53.122;12.776;2023-05-19T00:38:41;101960.19;;;5.87;82.92
31092;BME280;67728;53.122;12.776;2023-05-19T00:40:12;101956.81;;;5.89;81.81
31092;BME280;67728;53.122;12.776;2023-05-19T00:41:43;101955.69;;;5.80;81.71
31092;BME280;67728;53.122;12.776;2023-05-19T00:43:15;101954.66;;;5.72;81.98
31092;BME280;67728;53.122;12.776;2023-05-19T00:44:46;101958.28;;;5.80;82.23
31092;BME280;67728;53.122;12.776;2023-05-19T00:46:18;101955.91;;;5.87;81.74
31092;BME280;67728;53.122;12.776;2023-05-19T00:47:49;101954.44;;;5.97;81.45
31092;BME280;67728;53.122;12.776;2023-05-19T00:49:21;101958.72;;;5.98;81.85
31092;BME280;67728;53.122;12.776;2023-05-19T00:50:54;101949.94;;;5.90;82.15
31092;BME280;67728;53.122;12.776;2023-05-19T00:52:31;101962.41;;;6.09;81.88
31092;BME280;67728;53.122;12.776;2023-05-19T00:54:01;101957.97;;;6.02;80.77
31092;BME280;67728;53.122;12.776;2023-05-19T00:55:36;101956.22;;;5.99;80.97
31092;BME280;67728;53.122;12.776;2023-05-19T00:57:09;101956.94;;;5.94;80.93
31092;BME280;67728;53.122;12.776;2023-05-19T00:58:42;101958.59;;;5.92;81.64
31092;BME280;67728;53.122;12.776;2023-05-19T01:00:14;101958.66;;;5.95;81.77
31092;BME280;67728;53.122;12.776;2023-05-19T01:01:47;101963.69;;;5.89;81.63
31092;BME280;67728;53.122;12.776;2023-05-19T01:03:18;101961.59;;;5.76;81.70
31092;BME280;67728;53.122;12.776;2023-05-19T01:04:50;101968.94;;;5.61;81.67
31092;BME280;67728;53.122;12.776;2023-05-19T01:06:24;101967.94;;;5.54;82.10
31092;BME280;67728;53.122;12.776;2023-05-19T01:07:57;101964.41;;;5.51;82.24
31092;BME280;67728;53.122;12.776;2023-05-19T01:09:27;101967.34;;;5.66;82.51
31092;BME280;67728;53.122;12.776;2023-05-19T01:11:00;101955.22;;;5.60;82.33
31092;BME280;67728;53.122;12.776;2023-05-19T01:12:31;101961.59;;;5.40;82.46
31092;BME280;67728;53.122;12.776;2023-05-19T01:14:03;101959.44;;;5.57;82.87
31092;BME280;67728;53.122;12.776;2023-05-19T01:15:41;101961.84;;;5.51;82.07
31092;BME280;67728;53.122;12.776;2023-05-19T01:17:22;101953.41;;;5.56;82.46
31092;BME280;67728;53.122;12.776;2023-05-19T01:19:02;101953.34;;;5.53;82.27
31092;BME280;67728;53.122;12.776;2023-05-19T01:20:43;101956.78;;;5.54;82.33
31092;BME280;67728;53.122;12.776;2023-05-19T01:22:37;101950.69;;;5.52;82.91
31092;BME280;67728;53.122;12.776;2023-05-19T01:24:22;101955.09;;;5.56;82.83
31092;BME280;67728;53.122;12.776;2023-05-19T01:26:27;101941.53;;;5.61;81.88
31092;BME280;67728;53.122;12.776;2023-05-19T01:28:28;101958.31;;;5.47;82.17
31092;BME280;67728;53.122;12.776;2023-05-19T01:30:25;101964.50;;;5.54;82.76
31092;BME280;67728;53.122;12.776;2023-05-19T01:31:59;101955.97;;;5.56;82.61
31092;BME280;67728;53.122;12.776;2023-05-19T01:33:32;101957.19;;;5.70;82.13
31092;BME280;67728;53.122;12.776;2023-05-19T01:35:04;101953.16;;;5.46;82.01
31092;BME280;67728;53.122;12.776;2023-05-19T01:36:37;101960.63;;;5.36;82.31
31092;BME280;67728;53.122;12.776;2023-05-19T01:38:11;101956.84;;;5.57;82.30
31092;BME280;67728;53.122;12.776;2023-05-19T01:39:43;101960.16;;;5.53;83.12
31092;BME280;67728;53.122;12.776;2023-05-19T01:41:15;101957.31;;;5.40;82.50
31092;BME280;67728;53.122;12.776;2023-05-19T01:42:50;101954.16;;;5.52;82.61
31092;BME280;67728;53.122;12.776;2023-05-19T01:44:23;101964.38;;;5.49;82.47
31092;BME280;67728;53.122;12.776;2023-05-19T01:45:56;101964.81;;;5.33;83.28
31092;BME280;67728;53.122;12.776;2023-05-19T01:47:28;101963.88;;;5.29;83.38
31092;BME280;67728;53.122;12.776;2023-05-19T01:49:00;101966.47;;;5.31;83.29
31092;BME280;67728;53.122;12.776;2023-05-19T01:50:32;101962.22;;;5.31;83.84
31092;BME280;67728;53.122;12.776;2023-05-19T01:52:03;101959.66;;;5.33;83.04
31092;BME280;67728;53.122;12.776;2023-05-19T01:53:35;101959.81;;;5.39;82.31
31092;BME280;67728;53.122;12.776;2023-05-19T01:55:07;101967.91;;;5.20;83.35
31092;BME280;67728;53.122;12.776;2023-05-19T01:56:44;101968.22;;;5.32;83.55
31092;BME280;67728;53.122;12.776;2023-05-19T01:58:20;101963.78;;;5.26;83.85
31092;BME280;67728;53.122;12.776;2023-05-19T01:59:58;101961.94;;;5.21;83.76
31092;BME280;67728;53.122;12.776;2023-05-19T02:01:43;101955.13;;;5.23;83.92
31092;BME280;67728;53.122;12.776;2023-05-19T02:03:28;101960.38;;;5.27;84.00
31092;BME280;67728;53.122;12.776;2023-05-19T02:05:08;101959.44;;;5.24;83.63
31092;BME280;67728;53.122;12.776;2023-05-19T02:06:47;101962.81;;;5.21;84.57
31092;BME280;67728;53.122;12.776;2023-05-19T02:08:22;101957.69;;;5.23;84.53
31092;BME280;67728;53.122;12.776;2023-05-19T02:10:00;101956.09;;;5.28;84.31
31092;BME280;67728;53.122;12.776;2023-05-19T02:11:36;101961.38;;;5.32;84.65
31092;BME280;67728;53.122;12.776;2023-05-19T02:13:10;101956.19;;;5.31;83.96
31092;BME280;67728;53.122;12.776;2023-05-19T02:14:46;101962.09;;;5.27;83.45
31092;BME280;67728;53.122;12.776;2023-05-19T02:16:20;101953.72;;;5.35;83.47
31092;BME280;67728;53.122;12.776;2023-05-19T02:17:54;101955.47;;;5.36;83.70
31092;BME280;67728;53.122;12.776;2023-05-19T02:19:30;101958.06;;;5.36;83.52
31092;BME280;67728;53.122;12.776;2023-05-19T02:21:02;101960.66;;;5.38;84.14
31092;BME280;67728;53.122;12.776;2023-05-19T02:22:34;101959.75;;;5.36;83.93
31092;BME280;67728;53.122;12.776;2023-05-19T02:24:05;101960.53;;;5.33;84.70
31092;BME280;67728;53.122;12.776;2023-05-19T02:25:37;101953.16;;;5.47;84.26
31092;BME280;67728;53.122;12.776;2023-05-19T02:27:09;101953.88;;;5.41;83.71
31092;BME280;67728;53.122;12.776;2023-05-19T02:28:39;101953.81;;;5.38;83.53
31092;BME280;67728;53.122;12.776;2023-05-19T02:30:11;101952.34;;;5.48;82.97
31092;BME280;67728;53.122;12.776;2023-05-19T02:31:43;101953.97;;;5.44;83.82
31092;BME280;67728;53.122;12.776;2023-05-19T02:33:16;101958.56;;;5.56;83.63
31092;BME280;67728;53.122;12.776;2023-05-19T02:34:48;101954.22;;;5.54;83.75
31092;BME280;67728;53.122;12.776;2023-05-19T02:36:19;101957.59;;;5.53;84.01
31092;BME280;67728;53.122;12.776;2023-05-19T02:37:50;101949.31;;;5.64;83.76
31092;BME280;67728;53.122;12.776;2023-05-19T02:39:23;101956.56;;;5.46;83.73
31092;BME280;67728;53.122;12.776;2023-05-19T02:40:55;101962.75;;;5.53;84.06
31092;BME280;67728;53.122;12.776;2023-05-19T02:42:27;101946.44;;;5.52;83.90
31092;BME280;67728;53.122;12.776;2023-05-19T02:43:59;101959.09;;;5.43;84.21
31092;BME280;67728;53.122;12.776;2023-05-19T02:45:31;101956.63;;;5.48;83.71
31092;BME280;67728;53.122;12.776;2023-05-19T02:47:03;101958.94;;;5.38;83.83
31092;BME280;67728;53.122;12.776;2023-05-19T02:48:36;101947.72;;;5.35;84.15
31092;BME280;67728;53.122;12.776;2023-05-19T02:50:08;101959.75;;;5.36;84.20
31092;BME280;67728;53.122;12.776;2023-05-19T02:51:41;101956.09;;;5.28;84.39
31092;BME280;67728;53.122;12.776;2023-05-19T02:53:12;101953.97;;;5.44;83.96
31092;BME280;67728;53.122;12.776;2023-05-19T02:54:44;101952.94;;;5.38;83.71
31092;BME280;67728;53.122;12.776;2023-05-19T02:56:16;101956.53;;;5.44;84.49
31092;BME280;67728;53.122;12.776;2023-05-19T02:57:47;101954.16;;;5.52;83.91
31092;BME280;67728;53.122;12.776;2023-05-19T02:59:19;101950.56;;;5.46;83.86
31092;BME280;67728;53.122;12.776;2023-05-19T03:00:49;101946.84;;;5.34;84.15
31092;BME280;67728;53.122;12.776;2023-05-19T03:02:21;101941.72;;;5.36;83.94
31092;BME280;67728;53.122;12.776;2023-05-19T03:03:54;101939.31;;;5.42;84.27
31092;BME280;67728;53.122;12.776;2023-05-19T03:05:25;101941.78;;;5.37;84.01
31092;BME280;67728;53.122;12.776;2023-05-19T03:06:57;101937.00;;;5.53;84.00
31092;BME280;67728;53.122;12.776;2023-05-19T03:08:28;101935.25;;;5.50;84.09
31092;BME280;67728;53.122;12.776;2023-05-19T03:09:59;101932.66;;;5.49;84.22
31092;BME280;67728;53.122;12.776;2023-05-19T03:11:33;101938.38;;;5.38;84.35
31092;BME280;67728;53.122;12.776;2023-05-19T03:13:03;101934.28;;;5.47;84.28
31092;BME280;67728;53.122;12.776;2023-05-19T03:14:35;101933.19;;;5.37;84.10
31092;BME280;67728;53.122;12.776;2023-05-19T03:16:06;101935.59;;;5.31;84.55
31092;BME280;67728;53.122;12.776;2023-05-19T03:17:38;101939.94;;;5.32;84.95
31092;BME280;67728;53.122;12.776;2023-05-19T03:19:11;101934.91;;;5.38;84.63
31092;BME280;67728;53.122;12.776;2023-05-19T03:20:42;101935.53;;;5.28;84.02
31092;BME280;67728;53.122;12.776;2023-05-19T03:22:14;101934.78;;;5.32;83.49
31092;BME280;67728;53.122;12.776;2023-05-19T03:23:47;101938.97;;;5.28;83.90
31092;BME280;67728;53.122;12.776;2023-05-19T03:25:18;101934.81;;;5.33;84.20
31092;BME280;67728;53.122;12.776;2023-05-19T03:26:50;101938.97;;;5.28;84.17
31092;BME280;67728;53.122;12.776;2023-05-19T03:28:21;101943.38;;;5.32;84.40
31092;BME280;67728;53.122;12.776;2023-05-19T03:29:53;101941.47;;;5.25;84.22
31092;BME280;67728;53.122;12.776;2023-05-19T03:31:25;101944.94;;;5.27;84.19
31092;BME280;67728;53.122;12.776;2023-05-19T03:32:57;101938.81;;;5.22;85.19
31092;BME280;67728;53.122;12.776;2023-05-19T03:34:32;101933.84;;;5.30;84.85
31092;BME280;67728;53.122;12.776;2023-05-19T03:36:05;101941.72;;;5.36;84.77
31092;BME280;67728;53.122;12.776;2023-05-19T03:37:37;101943.66;;;5.44;84.34
31092;BME280;67728;53.122;12.776;2023-05-19T03:39:08;101941.97;;;5.45;84.37
31092;BME280;67728;53.122;12.776;2023-05-19T03:40:40;101935.16;;;5.47;84.28
31092;BME280;67728;53.122;12.776;2023-05-19T03:42:12;101942.78;;;5.42;83.91
31092;BME280;67728;53.122;12.776;2023-05-19T03:43:43;101947.22;;;5.50;83.45
31092;BME280;67728;53.122;12.776;2023-05-19T03:45:14;101941.38;;;5.55;83.91
31092;BME280;67728;53.122;12.776;2023-05-19T03:46:46;101948.34;;;5.59;84.10
31092;BME280;67728;53.122;12.776;2023-05-19T03:48:18;101948.19;;;5.53;84.46
31092;BME280;67728;53.122;12.776;2023-05-19T03:49:51;101949.88;;;5.53;84.22
31092;BME280;67728;53.122;12.776;2023-05-19T03:51:21;101949.97;;;5.56;84.31
31092;BME280;67728;53.122;12.776;2023-05-19T03:52:53;101941.69;;;5.67;83.88
31092;BME280;67728;53.122;12.776;2023-05-19T03:54:24;101945.22;;;5.72;83.83
31092;BME280;67728;53.122;12.776;2023-05-19T03:55:56;101954.00;;;5.80;83.70
31092;BME280;67728;53.122;12.776;2023-05-19T03:57:28;101946.41;;;5.85;83.54
31092;BME280;67728;53.122;12.776;2023-05-19T03:59:00;101949.03;;;5.86;83.42
31092;BME280;67728;53.122;12.776;2023-05-19T04:00:31;101951.88;;;5.98;83.18
31092;BME280;67728;53.122;12.776;2023-05-19T04:02:02;101955.56;;;6.10;82.93
31092;BME280;67728;53.122;12.776;2023-05-19T04:03:34;101949.72;;;6.17;83.17
31092;BME280;67728;53.122;12.776;2023-05-19T04:05:07;101949.72;;;6.17;82.91
31092;BME280;67728;53.122;12.776;2023-05-19T04:06:38;101954.28;;;6.28;82.59
31092;BME280;67728;53.122;12.776;2023-05-19T04:08:09;101947.56;;;6.36;82.59
31092;BME280;67728;53.122;12.776;2023-05-19T04:09:40;101946.06;;;6.46;81.70
31092;BME280;67728;53.122;12.776;2023-05-19T04:11:12;101946.28;;;6.56;82.53
31092;BME280;67728;53.122;12.776;2023-05-19T04:12:44;101945.50;;;6.60;82.35
31092;BME280;67728;53.122;12.776;2023-05-19T04:14:16;101953.38;;;6.68;82.11
31092;BME280;67728;53.122;12.776;2023-05-19T04:15:49;101944.81;;;6.69;82.11
31092;BME280;67728;53.122;12.776;2023-05-19T04:17:20;101950.06;;;6.74;81.60
31092;BME280;67728;53.122;12.776;2023-05-19T04:18:55;101949.38;;;6.82;80.90
31092;BME280;67728;53.122;12.776;2023-05-19T04:20:28;101952.09;;;6.88;81.44
31092;BME280;67728;53.122;12.776;2023-05-19T04:22:00;101953.88;;;6.92;81.03
31092;BME280;67728;53.122;12.776;2023-05-19T04:23:30;101942.91;;;7.04;80.83
31092;BME280;67728;53.122;12.776;2023-05-19T04:25:03;101941.28;;;7.07;80.28
31092;BME280;67728;53.122;12.776;2023-05-19T04:26:34;101939.72;;;7.15;80.23
31092;BME280;67728;53.122;12.776;2023-05-19T04:28:07;101943.16;;;7.17;80.13
31092;BME280;67728;53.122;12.776;2023-05-19T04:29:39;101935.47;;;7.19;79.72
31092;BME280;67728;53.122;12.776;2023-05-19T04:31:11;101943.16;;;7.16;80.35
31092;BME280;67728;53.122;12.776;2023-05-19T04:32:43;101950.09;;;7.20;80.37
31092;BME280;67728;53.122;12.776;2023-05-19T04:34:14;101960.34;;;7.15;80.69
31092;BME280;67728;53.122;12.776;2023-05-19T04:35:50;101950.97;;;7.22;80.47
31092;BME280;67728;53.122;12.776;2023-05-19T04:37:22;101944.00;;;7.15;81.11
31092;BME280;67728;53.122;12.776;2023-05-19T04:38:55;101957.75;;;7.15;81.09
31092;BME280;67728;53.122;12.776;2023-05-19T04:40:31;101954.44;;;7.22;80.80
31092;BME280;67728;53.122;12.776;2023-05-19T04:42:03;101959.59;;;7.21;80.88
31092;BME280;67728;53.122;12.776;2023-05-19T04:43:35;101949.38;;;7.27;80.82
31092;BME280;67728;53.122;12.776;2023-05-19T04:45:10;101954.50;;;7.26;81.15
31092;BME280;67728;53.122;12.776;2023-05-19T04:46:43;101950.38;;;7.35;80.95
31092;BME280;67728;53.122;12.776;2023-05-19T04:48:15;101954.81;;;7.42;80.41
31092;BME280;67728;53.122;12.776;2023-05-19T04:49:46;101950.47;;;7.40;79.65
31092;BME280;67728;53.122;12.776;2023-05-19T04:51:19;101944.47;;;7.42;79.75
31092;BME280;67728;53.122;12.776;2023-05-19T04:52:52;101949.59;;;7.41;80.53
31092;BME280;67728;53.122;12.776;2023-05-19T04:54:24;101949.81;;;7.53;80.28
31092;BME280;67728;53.122;12.776;2023-05-19T04:55:56;101948.22;;;7.59;79.32
31092;BME280;67728;53.122;12.776;2023-05-19T04:57:28;101951.53;;;7.52;80.21
31092;BME280;67728;53.122;12.776;2023-05-19T04:59:00;101948.16;;;7.56;80.14
31092;BME280;67728;53.122;12.776;2023-05-19T05:00:32;101954.38;;;7.69;80.10
31092;BME280;67728;53.122;12.776;2023-05-19T05:02:05;101946.63;;;7.69;80.41
31092;BME280;67728;53.122;12.776;2023-05-19T05:03:36;101945.16;;;7.84;79.87
31092;BME280;67728;53.122;12.776;2023-05-19T05:05:08;101938.34;;;7.88;79.28
31092;BME280;67728;53.122;12.776;2023-05-19T05:06:41;101939.91;;;7.78;79.62
31092;BME280;67728;53.122;12.776;2023-05-19T05:08:17;101940.88;;;7.85;78.67
31092;BME280;67728;53.122;12.776;2023-05-19T05:09:52;101938.47;;;7.97;78.25
31092;BME280;67728;53.122;12.776;2023-05-19T05:11:24;101938.34;;;7.90;79.29
31092;BME280;67728;53.122;12.776;2023-05-19T05:12:56;101943.56;;;7.91;78.91
31092;BME280;67728;53.122;12.776;2023-05-19T05:14:27;101945.41;;;8.01;78.72
31092;BME280;67728;53.122;12.776;2023-05-19T05:16:00;101943.84;;;8.12;77.63
31092;BME280;67728;53.122;12.776;2023-05-19T05:17:34;101949.03;;;8.11;77.31
31092;BME280;67728;53.122;12.776;2023-05-19T05:19:07;101947.38;;;8.17;77.87
31092;BME280;67728;53.122;12.776;2023-05-19T05:20:40;101944.94;;;8.26;78.04
31092;BME280;67728;53.122;12.776;2023-05-19T05:22:14;101944.88;;;8.23;76.82
31092;BME280;67728;53.122;12.776;2023-05-19T05:23:46;101945.06;;;8.32;78.46
31092;BME280;67728;53.122;12.776;2023-05-19T05:25:19;101948.34;;;8.25;79.01
31092;BME280;67728;53.122;12.776;2023-05-19T05:26:50;101949.31;;;8.29;78.61
31092;BME280;67728;53.122;12.776;2023-05-19T05:28:22;101948.50;;;8.34;78.54
31092;BME280;67728;53.122;12.776;2023-05-19T05:29:53;101951.09;;;8.36;78.45
31092;BME280;67728;53.122;12.776;2023-05-19T05:31:24;101946.03;;;8.43;77.87
31092;BME280;67728;53.122;12.776;2023-05-19T05:32:56;101948.56;;;8.39;79.46
31092;BME280;67728;53.122;12.776;2023-05-19T05:34:28;101947.00;;;8.50;78.96
31092;BME280;67728;53.122;12.776;2023-05-19T05:35:59;101948.59;;;8.42;79.09
31092;BME280;67728;53.122;12.776;2023-05-19T05:37:32;101943.63;;;8.56;78.04
31092;BME280;67728;53.122;12.776;2023-05-19T05:39:04;101948.91;;;8.68;77.81
31092;BME280;67728;53.122;12.776;2023-05-19T05:40:35;101948.97;;;8.71;78.98
31092;BME280;67728;53.122;12.776;2023-05-19T05:42:07;101950.78;;;8.78;77.70
31092;BME280;67728;53.122;12.776;2023-05-19T05:43:39;101945.69;;;8.85;76.58
31092;BME280;67728;53.122;12.776;2023-05-19T05:45:11;101938.84;;;8.90;76.15
31092;BME280;67728;53.122;12.776;2023-05-19T05:46:43;101943.28;;;9.03;73.36
31092;BME280;67728;53.122;12.776;2023-05-19T05:48:15;101948.63;;;9.17;74.14
31092;BME280;67728;53.122;12.776;2023-05-19T05:49:47;101945.38;;;9.41;74.22
31092;BME280;67728;53.122;12.776;2023-05-19T05:51:20;101948.72;;;9.26;75.11
31092;BME280;67728;53.122;12.776;2023-05-19T05:52:54;101932.44;;;9.39;72.38
31092;BME280;67728;53.122;12.776;2023-05-19T05:54:28;101938.53;;;9.43;71.95
31092;BME280;67728;53.122;12.776;2023-05-19T05:56:00;101943.75;;;9.52;71.74
31092;BME280;67728;53.122;12.776;2023-05-19T05:57:32;101938.66;;;9.61;70.78
31092;BME280;67728;53.122;12.776;2023-05-19T05:59:04;101947.38;;;9.69;72.06
31092;BME280;67728;53.122;12.776;2023-05-19T06:00:36;101952.63;;;9.78;69.69
31092;BME280;67728;53.122;12.776;2023-05-19T06:02:08;101943.88;;;9.64;73.62
31092;BME280;67728;53.122;12.776;2023-05-19T06:03:40;101947.41;;;9.75;71.75
31092;BME280;67728;53.122;12.776;2023-05-19T06:05:13;101948.34;;;9.85;70.73
31092;BME280;67728;53.122;12.776;2023-05-19T06:06:45;101944.97;;;9.98;71.10
31092;BME280;67728;53.122;12.776;2023-05-19T06:08:18;101951.09;;;10.07;70.57
31092;BME280;67728;53.122;12.776;2023-05-19T06:09:50;101949.31;;;9.97;70.98
31092;BME280;67728;53.122;12.776;2023-05-19T06:11:21;101949.34;;;10.05;70.37
31092;BME280;67728;53.122;12.776;2023-05-19T06:12:54;101946.00;;;10.16;69.22
31092;BME280;67728;53.122;12.776;2023-05-19T06:14:26;101947.75;;;10.19;68.71
31092;BME280;67728;53.122;12.776;2023-05-19T06:15:57;101952.13;;;10.29;69.93
31092;BME280;67728;53.122;12.776;2023-05-19T06:17:29;101947.84;;;10.39;70.31
31092;BME280;67728;53.122;12.776;2023-05-19T06:19:00;101954.84;;;10.55;69.08
31092;BME280;67728;53.122;12.776;2023-05-19T06:20:32;101952.31;;;10.68;67.78
31092;BME280;67728;53.122;12.776;2023-05-19T06:22:04;101954.91;;;10.76;67.45
31092;BME280;67728;53.122;12.776;2023-05-19T06:23:36;101955.81;;;10.79;68.73
31092;BME280;67728;53.122;12.776;2023-05-19T06:25:08;101956.63;;;10.66;69.50
31092;BME280;67728;53.122;12.776;2023-05-19T06:26:39;101957.53;;;10.77;68.00
31092;BME280;67728;53.122;12.776;2023-05-19T06:28:11;101953.06;;;10.45;65.81
31092;BME280;67728;53.122;12.776;2023-05-19T06:29:42;101954.94;;;10.70;66.26
31092;BME280;67728;53.122;12.776;2023-05-19T06:31:14;101954.09;;;10.88;65.83
31092;BME280;67728;53.122;12.776;2023-05-19T06:32:46;101961.06;;;10.95;65.48
31092;BME280;67728;53.122;12.776;2023-05-19T06:34:18;101954.16;;;11.09;66.96
31092;BME280;67728;53.122;12.776;2023-05-19T06:35:50;101956.81;;;11.27;67.23
31092;BME280;67728;53.122;12.776;2023-05-19T06:37:22;101963.75;;;11.45;65.25
31092;BME280;67728;53.122;12.776;2023-05-19T06:38:55;101955.94;;;11.52;64.87
31092;BME280;67728;53.122;12.776;2023-05-19T06:40:27;101960.28;;;11.58;63.83
31092;BME280;67728;53.122;12.776;2023-05-19T06:41:58;101955.09;;;11.53;66.27
31092;BME280;67728;53.122;12.776;2023-05-19T06:43:30;101955.97;;;11.48;64.62
31092;BME280;67728;53.122;12.776;2023-05-19T06:45:02;101968.03;;;11.20;66.79
31092;BME280;67728;53.122;12.776;2023-05-19T06:46:34;101956.81;;;11.34;65.76
31092;BME280;67728;53.122;12.776;2023-05-19T06:48:05;101956.78;;;11.18;65.10
31092;BME280;67728;53.122;12.776;2023-05-19T06:49:37;101953.34;;;11.32;64.66
31092;BME280;67728;53.122;12.776;2023-05-19T06:51:08;101964.59;;;11.36;65.65
31092;BME280;67728;53.122;12.776;2023-05-19T06:52:40;101960.28;;;11.38;65.25
31092;BME280;67728;53.122;12.776;2023-05-19T06:54:13;101952.50;;;11.47;65.85
31092;BME280;67728;53.122;12.776;2023-05-19T06:55:45;101954.19;;;11.15;65.57
31092;BME280;67728;53.122;12.776;2023-05-19T06:57:19;101953.34;;;11.35;65.43
31092;BME280;67728;53.122;12.776;2023-05-19T06:58:51;101950.75;;;11.38;65.87
31092;BME280;67728;53.122;12.776;2023-05-19T07:00:23;101956.84;;;11.65;65.92
31092;BME280;67728;53.122;12.776;2023-05-19T07:01:54;101950.78;;;11.64;65.94
31092;BME280;67728;53.122;12.776;2023-05-19T07:03:26;101951.63;;;12.01;65.71
31092;BME280;67728;53.122;12.776;2023-05-19T07:04:58;101949.03;;;11.81;64.62
31092;BME280;67728;53.122;12.776;2023-05-19T07:06:29;101949.06;;;11.72;64.01
31092;BME280;67728;53.122;12.776;2023-05-19T07:08:01;101949.06;;;11.90;65.25
31092;BME280;67728;53.122;12.776;2023-05-19T07:09:35;101945.56;;;12.05;65.76
31092;BME280;67728;53.122;12.776;2023-05-19T07:11:07;101942.97;;;12.07;65.24
31092;BME280;67728;53.122;12.776;2023-05-19T07:12:38;101944.66;;;12.21;62.96
31092;BME280;67728;53.122;12.776;2023-05-19T07:14:10;101950.56;;;12.70;62.60
31092;BME280;67728;53.122;12.776;2023-05-19T07:15:42;101952.34;;;12.54;62.01
31092;BME280;67728;53.122;12.776;2023-05-19T07:17:13;101954.25;;;12.03;63.48
31092;BME280;67728;53.122;12.776;2023-05-19T07:18:45;101948.19;;;11.93;65.94
31092;BME280;67728;53.122;12.776;2023-05-19T07:20:16;101952.47;;;12.21;63.95
31092;BME280;67728;53.122;12.776;2023-05-19T07:21:48;101949.59;;;12.88;62.13
31092;BME280;67728;53.122;12.776;2023-05-19T07:23:20;101960.63;;;13.40;60.78
31092;BME280;67728;53.122;12.776;2023-05-19T07:24:53;101951.31;;;12.96;62.10
31092;BME280;67728;53.122;12.776;2023-05-19T07:26:26;101955.78;;;12.66;63.73
31092;BME280;67728;53.122;12.776;2023-05-19T07:27:57;101949.59;;;12.88;62.91
31092;BME280;67728;53.122;12.776;2023-05-19T07:29:29;101956.66;;;12.68;61.54
31092;BME280;67728;53.122;12.776;2023-05-19T07:31:01;101960.94;;;12.76;61.80
31092;BME280;67728;53.122;12.776;2023-05-19T07:32:33;101956.59;;;12.77;61.91
31092;BME280;67728;53.122;12.776;2023-05-19T07:34:05;101959.91;;;13.12;63.32
31092;BME280;67728;53.122;12.776;2023-05-19T07:35:36;101947.72;;;13.17;60.66
31092;BME280;67728;53.122;12.776;2023-05-19T07:37:08;101950.41;;;12.99;60.76
31092;BME280;67728;53.122;12.776;2023-05-19T07:38:40;101944.28;;;13.12;61.87
31092;BME280;67728;53.122;12.776;2023-05-19T07:40:13;101945.00;;;13.34;61.68
31092;BME280;67728;53.122;12.776;2023-05-19T07:41:44;101945.16;;;13.12;61.78
31092;BME280;67728;53.122;12.776;2023-05-19T07:43:21;101948.59;;;13.17;60.44
31092;BME280;67728;53.122;12.776;2023-05-19T07:44:54;101940.53;;;13.49;61.98
31092;BME280;67728;53.122;12.776;2023-05-19T07:46:26;101944.66;;;13.77;60.67
31092;BME280;67728;53.122;12.776;2023-05-19T07:47:58;101948.25;;;13.63;58.74
31092;BME280;67728;53.122;12.776;2023-05-19T07:49:29;101952.94;;;14.22;58.16
31092;BME280;67728;53.122;12.776;2023-05-19T07:51:01;101948.63;;;14.91;55.45
31092;BME280;67728;53.122;12.776;2023-05-19T07:52:33;101940.25;;;15.29;54.57
31092;BME280;67728;53.122;12.776;2023-05-19T07:54:04;101949.03;;;14.62;58.38
31092;BME280;67728;53.122;12.776;2023-05-19T07:55:38;101951.13;;;14.25;58.24
31092;BME280;67728;53.122;12.776;2023-05-19T07:57:10;101945.66;;;14.54;57.31
31092;BME280;67728;53.122;12.776;2023-05-19T07:58:42;101951.53;;;14.70;57.69
31092;BME280;67728;53.122;12.776;2023-05-19T08:00:14;101947.66;;;14.98;56.10
31092;BME280;67728;53.122;12.776;2023-05-19T08:01:47;101956.72;;;14.71;57.23
31092;BME280;67728;53.122;12.776;2023-05-19T08:03:18;101952.09;;;14.94;54.43